createdAt,value
2022-09-23T00:01:23.334Z,100482.48
2022-09-23T00:03:51.263Z,100481.45
2022-09-23T00:06:20.993Z,100480.26
2022-09-23T00:08:49.275Z,100481.30
2022-09-23T00:11:20.833Z,100475.35
2022-09-23T00:13:49.135Z,100474.29
2022-09-23T00:16:18.348Z,100473.75
2022-09-23T00:18:48.923Z,100472.36
2022-09-23T00:21:16.231Z,100468.50
2022-09-23T00:23:43.289Z,100465.67
2022-09-23T00:26:11.779Z,100463.55
2022-09-23T00:28:38.726Z,100464.47
2022-09-23T00:31:08.603Z,100467.09
2022-09-23T00:33:36.221Z,100467.45
2022-09-23T00:36:05.834Z,100465.34
2022-09-23T00:38:35.949Z,100467.63
2022-09-23T00:41:03.111Z,100463.95
2022-09-23T00:43:37.340Z,100463.92
2022-09-23T00:46:04.137Z,100463.77
2022-09-23T00:48:31.445Z,100464.77
2022-09-23T00:50:58.402Z,100467.92
2022-09-23T00:53:26.173Z,100467.73
2022-09-23T00:55:56.400Z,100464.91
2022-09-23T00:58:26.430Z,100469.77
2022-09-23T01:00:54.017Z,100464.84
2022-09-23T01:03:22.283Z,100465.98
2022-09-23T01:05:49.236Z,100466.89
2022-09-23T01:08:17.726Z,100470.59
2022-09-23T01:11:00.554Z,100471.69
2022-09-23T01:13:51.163Z,100472.40
2022-09-23T01:16:33.670Z,100475.41
2022-09-23T01:19:16.513Z,100471.96
2022-09-23T01:21:44.386Z,100469.89
2022-09-23T01:24:26.504Z,100469.73
2022-09-23T01:27:24.375Z,100468.84
2022-09-23T01:30:13.552Z,100469.73
2022-09-23T01:33:00.386Z,100474.50
2022-09-23T01:35:29.892Z,100473.64
2022-09-23T01:38:29.609Z,100474.70
2022-09-23T01:41:06.290Z,100474.20
2022-09-23T01:43:41.243Z,100473.15
2022-09-23T01:46:21.909Z,100467.38
2022-09-23T01:49:06.282Z,100467.23
2022-09-23T01:51:50.123Z,100465.66
2022-09-23T01:54:24.657Z,100465.33
2022-09-23T01:57:02.664Z,100467.45
2022-09-23T01:59:37.401Z,100466.91
2022-09-23T02:02:32.811Z,100467.77
2022-09-23T02:05:09.505Z,100473.02
2022-09-23T02:07:57.450Z,100476.02
2022-09-23T02:10:51.645Z,100478.13
2022-09-23T02:13:24.020Z,100483.40
2022-09-23T02:15:53.327Z,100484.47
2022-09-23T02:18:46.393Z,100486.75
2022-09-23T02:21:14.471Z,100491.16
2022-09-23T02:23:44.388Z,100491.19
2022-09-23T02:26:27.635Z,100494.55
2022-09-23T02:29:13.024Z,100498.96
2022-09-23T02:31:56.505Z,100499.52
2022-09-23T02:34:37.335Z,100501.66
2022-09-23T02:37:43.545Z,100501.52
2022-09-23T02:40:14.512Z,100504.30
2022-09-23T02:43:00.355Z,100503.95
2022-09-23T02:45:28.235Z,100504.14
2022-09-23T02:48:03.080Z,100506.79
2022-09-23T02:50:31.461Z,100501.73
2022-09-23T02:52:59.030Z,100501.58
2022-09-23T02:55:29.811Z,100509.30
2022-09-23T02:57:57.639Z,100513.20
2022-09-23T03:00:25.167Z,100516.05
2022-09-23T03:03:04.040Z,100518.20
2022-09-23T03:05:34.986Z,100518.39
2022-09-23T03:08:25.582Z,100525.06
2022-09-23T03:10:59.185Z,100527.53
2022-09-23T03:13:46.510Z,100527.38
2022-09-23T03:16:31.642Z,100526.52
2022-09-23T03:19:22.494Z,100528.98
2022-09-23T03:22:01.532Z,100530.04
2022-09-23T03:24:31.959Z,100530.89
2022-09-23T03:27:01.364Z,100531.94
2022-09-23T03:29:29.812Z,100532.13
2022-09-23T03:31:56.540Z,100533.72
2022-09-23T03:34:26.499Z,100535.11
2022-09-23T03:37:02.374Z,100532.29
2022-09-23T03:39:41.719Z,100533.35
2022-09-23T03:42:16.556Z,100536.30
2022-09-23T03:44:45.049Z,100540.49
2022-09-23T03:47:13.210Z,100541.35
2022-09-23T03:49:42.129Z,100540.47
2022-09-23T03:52:09.390Z,100531.52
2022-09-23T03:54:36.139Z,100532.20
2022-09-23T03:57:03.618Z,100533.57
2022-09-23T03:59:30.976Z,100533.73
2022-09-23T04:01:59.089Z,100537.25
2022-09-23T04:04:27.125Z,100538.16
2022-09-23T04:06:55.983Z,100538.88
2022-09-23T04:09:23.174Z,100540.11
2022-09-23T04:11:50.945Z,100538.52
2022-09-23T04:14:20.894Z,100536.77
2022-09-23T04:16:48.009Z,100535.73
2022-09-23T04:19:15.398Z,100533.42
2022-09-23T04:21:43.666Z,100534.09
2022-09-23T04:24:10.619Z,100536.15
2022-09-23T04:26:38.382Z,100539.25
2022-09-23T04:29:05.622Z,100535.88
2022-09-23T04:31:32.967Z,100535.83
2022-09-23T04:34:00.183Z,100536.34
2022-09-23T04:36:28.735Z,100534.57
2022-09-23T04:38:56.702Z,100536.28
2022-09-23T04:41:23.651Z,100537.50
2022-09-23T04:43:50.280Z,100539.88
2022-09-23T04:46:17.184Z,100541.40
2022-09-23T04:48:44.126Z,100541.33
2022-09-23T04:51:17.305Z,100534.24
2022-09-23T04:53:45.102Z,100538.20
2022-09-23T04:56:14.158Z,100541.98
2022-09-23T04:58:41.207Z,100539.94
2022-09-23T05:01:19.302Z,100544.73
2022-09-23T05:03:47.491Z,100542.83
2022-09-23T05:06:14.357Z,100546.02
2022-09-23T05:08:52.881Z,100538.67
2022-09-23T05:11:20.214Z,100540.40
2022-09-23T05:13:49.044Z,100538.66
2022-09-23T05:16:16.405Z,100540.39
2022-09-23T05:18:43.873Z,100535.29
2022-09-23T05:21:12.364Z,100534.91
2022-09-23T05:23:40.339Z,100532.79
2022-09-23T05:26:10.417Z,100532.42
2022-09-23T05:28:38.756Z,100531.52
2022-09-23T05:31:08.758Z,100531.84
2022-09-23T05:33:36.348Z,100528.23
2022-09-23T05:36:03.605Z,100528.11
2022-09-23T05:38:32.066Z,100528.80
2022-09-23T05:41:03.966Z,100530.41
2022-09-23T05:43:31.941Z,100531.80
2022-09-23T05:46:08.168Z,100528.89
2022-09-23T05:48:36.297Z,100523.09
2022-09-23T05:51:04.071Z,100522.04
2022-09-23T05:53:31.223Z,100523.50
2022-09-23T05:55:58.741Z,100522.77
2022-09-23T05:58:27.178Z,100524.60
2022-09-23T06:00:56.280Z,100524.87
2022-09-23T06:03:25.630Z,100523.80
2022-09-23T06:05:53.673Z,100527.21
2022-09-23T06:08:21.325Z,100531.45
2022-09-23T06:10:54.299Z,100533.05
2022-09-23T06:13:21.676Z,100537.52
2022-09-23T06:15:51.670Z,100538.16
2022-09-23T06:18:18.635Z,100539.83
2022-09-23T06:20:46.403Z,100538.77
2022-09-23T06:23:13.965Z,100544.29
2022-09-23T06:25:41.135Z,100547.73
2022-09-23T06:28:12.362Z,100546.66
2022-09-23T06:30:42.487Z,100541.29
2022-09-23T06:33:09.587Z,100541.64
2022-09-23T06:35:36.583Z,100539.73
2022-09-23T06:38:04.970Z,100540.76
2022-09-23T06:40:33.419Z,100541.64
2022-09-23T06:43:02.137Z,100545.73
2022-09-23T06:45:29.496Z,100542.57
2022-09-23T06:47:57.263Z,100540.45
2022-09-23T06:50:27.295Z,100537.38
2022-09-23T06:52:56.036Z,100534.77
2022-09-23T06:55:24.263Z,100535.98
2022-09-23T06:57:51.016Z,100537.58
2022-09-23T07:00:18.730Z,100537.38
2022-09-23T07:02:45.875Z,100532.83
2022-09-23T07:05:16.088Z,100531.77
2022-09-23T07:07:45.195Z,100533.64
2022-09-23T07:10:13.088Z,100529.50
2022-09-23T07:12:40.126Z,100529.20
2022-09-23T07:15:17.115Z,100527.52
2022-09-23T07:17:43.973Z,100525.50
2022-09-23T07:20:11.029Z,100527.11
2022-09-23T07:22:38.904Z,100525.05
2022-09-23T07:25:07.514Z,100523.90
2022-09-23T07:27:35.480Z,100526.68
2022-09-23T07:30:03.179Z,100524.86
2022-09-23T07:32:41.287Z,100526.09
2022-09-23T07:35:12.519Z,100524.52
2022-09-23T07:37:40.495Z,100523.17
2022-09-23T07:40:07.813Z,100517.11
2022-09-23T07:42:34.903Z,100516.84
2022-09-23T07:45:02.187Z,100514.54
2022-09-23T07:47:31.067Z,100514.13
2022-09-23T07:49:58.850Z,100513.41
2022-09-23T07:52:25.806Z,100503.95
2022-09-23T07:54:54.816Z,100508.35
2022-09-23T07:57:21.866Z,100509.54
2022-09-23T07:59:49.430Z,100507.48
2022-09-23T08:02:17.256Z,100504.33
2022-09-23T08:04:44.365Z,100500.66
2022-09-23T08:07:11.933Z,100505.73
2022-09-23T08:09:44.129Z,100503.34
2022-09-23T08:12:16.305Z,100504.82
2022-09-23T08:14:44.462Z,100498.04
2022-09-23T08:17:12.433Z,100497.13
2022-09-23T08:19:39.689Z,100500.61
2022-09-23T08:22:06.531Z,100504.40
2022-09-23T08:24:34.709Z,100508.23
2022-09-23T08:27:02.477Z,100507.43
2022-09-23T08:29:30.562Z,100508.39
2022-09-23T08:31:57.598Z,100506.09
2022-09-23T08:34:26.705Z,100503.34
2022-09-23T08:36:53.659Z,100503.27
2022-09-23T08:39:22.458Z,100501.88
2022-09-23T08:41:58.201Z,100503.02
2022-09-23T08:44:32.642Z,100500.92
2022-09-23T08:47:14.625Z,100496.07
2022-09-23T08:49:48.781Z,100497.54
2022-09-23T08:52:22.253Z,100495.68
2022-09-23T08:54:54.544Z,100501.52
2022-09-23T08:57:43.925Z,100498.81
2022-09-23T09:00:21.234Z,100494.93
2022-09-23T09:02:48.694Z,100490.05
2022-09-23T09:05:22.584Z,100492.35
2022-09-23T09:07:50.109Z,100497.32
2022-09-23T09:10:19.386Z,100489.02
2022-09-23T09:12:50.731Z,100489.50
2022-09-23T09:15:27.023Z,100487.02
2022-09-23T09:18:07.535Z,100483.17
2022-09-23T09:20:36.217Z,100481.48
2022-09-23T09:23:22.551Z,100484.99
2022-09-23T09:25:51.932Z,100483.33
2022-09-23T09:28:24.245Z,100487.29
2022-09-23T09:30:57.236Z,100482.58
2022-09-23T09:33:31.812Z,100483.48
2022-09-23T09:36:09.809Z,100483.49
2022-09-23T09:38:37.576Z,100483.44
2022-09-23T09:41:12.301Z,100484.55
2022-09-23T09:43:44.015Z,100481.27
2022-09-23T09:46:28.747Z,100481.13
2022-09-23T09:49:05.685Z,100479.43
2022-09-23T09:51:35.011Z,100482.49
2022-09-23T09:54:22.897Z,100480.83
2022-09-23T09:56:51.280Z,100479.20
2022-09-23T09:59:28.361Z,100477.52
2022-09-23T10:02:35.551Z,100476.95
2022-09-23T10:05:05.686Z,100476.60
2022-09-23T10:07:33.339Z,100476.64
2022-09-23T10:10:32.724Z,100480.98
2022-09-23T10:13:14.523Z,100476.02
2022-09-23T10:15:44.985Z,100478.52
2022-09-23T10:18:37.564Z,100482.11
2022-09-23T10:21:08.364Z,100480.20
2022-09-23T10:23:41.353Z,100477.20
2022-09-23T10:26:08.198Z,100473.36
2022-09-23T10:28:38.112Z,100475.60
2022-09-23T10:31:27.492Z,100471.77
2022-09-23T10:34:00.292Z,100475.17
2022-09-23T10:36:28.559Z,100479.17
2022-09-23T10:39:17.224Z,100483.04
2022-09-23T10:42:48.901Z,100488.45
2022-09-23T10:45:52.050Z,100485.16
2022-09-23T10:48:26.636Z,100486.07
2022-09-23T10:50:53.947Z,100488.55
2022-09-23T10:53:41.533Z,100488.39
2022-09-23T10:56:15.351Z,100488.94
2022-09-23T10:58:45.377Z,100489.70
2022-09-23T11:01:21.317Z,100491.90
2022-09-23T11:04:01.613Z,100493.89
2022-09-23T11:07:07.060Z,100490.20
2022-09-23T11:09:40.181Z,100485.69
2022-09-23T11:12:13.216Z,100482.91
2022-09-23T11:15:18.936Z,100480.65
2022-09-23T11:17:47.206Z,100482.23
2022-09-23T11:20:38.838Z,100477.83
2022-09-23T11:23:19.815Z,100480.07
2022-09-23T11:25:53.744Z,100474.46
2022-09-23T11:28:37.887Z,100472.16
2022-09-23T11:31:30.638Z,100472.48
2022-09-23T11:34:16.220Z,100471.70
2022-09-23T11:36:57.711Z,100469.95
2022-09-23T11:39:29.323Z,100468.84
2022-09-23T11:41:56.523Z,100463.80
2022-09-23T11:44:31.015Z,100465.42
2022-09-23T11:47:01.773Z,100463.37
2022-09-23T11:49:41.226Z,100464.17
2022-09-23T11:52:13.810Z,100467.83
2022-09-23T11:55:13.662Z,100464.73
2022-09-23T11:57:49.531Z,100462.52
2022-09-23T12:00:18.770Z,100464.19
2022-09-23T12:03:00.727Z,100464.99
2022-09-23T12:05:33.179Z,100465.16
2022-09-23T12:08:10.552Z,100465.48
2022-09-23T12:10:46.099Z,100460.20
2022-09-23T12:13:18.673Z,100463.58
2022-09-23T12:16:07.939Z,100459.45
2022-09-23T12:18:41.750Z,100455.73
2022-09-23T12:21:48.697Z,100454.91
2022-09-23T12:24:20.808Z,100450.34
2022-09-23T12:26:56.894Z,100449.44
2022-09-23T12:29:25.495Z,100448.96
2022-09-23T12:31:52.900Z,100450.89
2022-09-23T12:34:28.837Z,100446.70
2022-09-23T12:37:03.584Z,100447.67
2022-09-23T12:39:33.963Z,100445.73
2022-09-23T12:42:18.168Z,100443.86
2022-09-23T12:44:47.063Z,100445.17
2022-09-23T12:47:20.666Z,100442.27
2022-09-23T12:49:50.326Z,100439.80
2022-09-23T12:52:18.656Z,100433.48
2022-09-23T12:54:47.038Z,100434.64
2022-09-23T12:57:35.390Z,100436.98
2022-09-23T13:00:12.308Z,100433.97
2022-09-23T13:02:47.097Z,100432.09
2022-09-23T13:05:39.857Z,100431.38
2022-09-23T13:08:14.575Z,100432.78
2022-09-23T13:11:03.127Z,100432.15
2022-09-23T13:13:41.853Z,100432.30
2022-09-23T13:16:37.589Z,100432.36
2022-09-23T13:19:24.379Z,100428.77
2022-09-23T13:21:54.705Z,100426.17
2022-09-23T13:24:22.877Z,100423.75
2022-09-23T13:27:10.813Z,100424.98
2022-09-23T13:30:13.808Z,100428.53
2022-09-23T13:32:46.190Z,100426.03
2022-09-23T13:35:13.856Z,100422.54
2022-09-23T13:37:45.700Z,100422.14
2022-09-23T13:40:19.639Z,100420.27
2022-09-23T13:42:50.306Z,100417.77
2022-09-23T13:45:19.079Z,100414.93
2022-09-23T13:47:47.056Z,100417.73
2022-09-23T13:50:19.539Z,100418.88
2022-09-23T13:52:50.318Z,100423.34
2022-09-23T13:55:29.336Z,100424.69
2022-09-23T13:58:04.258Z,100423.98
2022-09-23T14:00:36.027Z,100418.67
2022-09-23T14:03:23.966Z,100421.52
2022-09-23T14:05:51.230Z,100424.11
2022-09-23T14:08:18.592Z,100421.33
2022-09-23T14:10:46.412Z,100421.57
2022-09-23T14:13:33.691Z,100424.45
2022-09-23T14:16:02.037Z,100435.80
2022-09-23T14:18:48.903Z,100433.38
2022-09-23T14:21:35.822Z,100429.58
2022-09-23T14:24:10.977Z,100432.20
2022-09-23T14:26:39.054Z,100430.94
2022-09-23T14:29:09.879Z,100429.67
2022-09-23T14:31:37.417Z,100436.80
2022-09-23T14:34:05.872Z,100439.25
2022-09-23T14:36:54.208Z,100440.27
2022-09-23T14:39:21.573Z,100443.44
2022-09-23T14:41:48.931Z,100441.58
2022-09-23T14:44:24.213Z,100440.27
2022-09-23T14:46:59.107Z,100442.14
2022-09-23T14:49:25.957Z,100445.88
2022-09-23T14:51:54.865Z,100445.69
2022-09-23T14:54:36.144Z,100444.88
2022-09-23T14:57:17.947Z,100448.72
2022-09-23T15:00:02.159Z,100449.42
2022-09-23T15:02:33.156Z,100451.55
2022-09-23T15:05:09.737Z,100451.84
2022-09-23T15:07:37.713Z,100455.56
2022-09-23T15:10:09.793Z,100454.87
2022-09-23T15:12:43.873Z,100457.29
2022-09-23T15:15:14.370Z,100454.62
2022-09-23T15:17:42.811Z,100450.98
2022-09-23T15:20:16.033Z,100449.90
2022-09-23T15:22:44.948Z,100451.79
2022-09-23T15:25:29.577Z,100452.02
2022-09-23T15:28:00.393Z,100451.35
2022-09-23T15:30:27.341Z,100452.89
2022-09-23T15:32:54.332Z,100452.70
2022-09-23T15:35:25.101Z,100454.61
2022-09-23T15:37:53.520Z,100459.63
2022-09-23T15:40:26.142Z,100459.05
2022-09-23T15:42:57.110Z,100460.79
2022-09-23T15:45:29.554Z,100458.59
2022-09-23T15:47:59.153Z,100458.12
2022-09-23T15:50:27.804Z,100460.69
2022-09-23T15:52:54.864Z,100463.69
2022-09-23T15:55:23.689Z,100462.91
2022-09-23T15:57:50.492Z,100466.05
2022-09-23T16:00:18.152Z,100465.48
2022-09-23T16:02:46.856Z,100466.52
2022-09-23T16:05:46.520Z,100467.52
2022-09-23T16:08:14.310Z,100468.21
2022-09-23T16:10:42.687Z,100470.34
2022-09-23T16:13:13.524Z,100472.60
2022-09-23T16:15:41.599Z,100474.58
2022-09-23T16:18:09.962Z,100475.72
2022-09-23T16:20:39.202Z,100474.61
2022-09-23T16:23:37.150Z,100479.33
2022-09-23T16:26:25.807Z,100481.42
2022-09-23T16:28:54.498Z,100481.92
2022-09-23T16:31:24.673Z,100482.38
2022-09-23T16:33:52.606Z,100482.64
2022-09-23T16:36:32.453Z,100481.90
2022-09-23T16:39:05.491Z,100487.55
2022-09-23T16:41:33.429Z,100485.23
2022-09-23T16:44:04.103Z,100490.21
2022-09-23T16:46:31.126Z,100489.67
2022-09-23T16:48:58.589Z,100488.52
2022-09-23T16:51:30.135Z,100492.77
2022-09-23T16:53:58.610Z,100492.27
2022-09-23T16:56:28.692Z,100497.73
2022-09-23T16:58:56.150Z,100501.42
2022-09-23T17:01:43.670Z,100506.55
2022-09-23T17:04:12.591Z,100507.30
2022-09-23T17:06:51.324Z,100508.19
2022-09-23T17:09:20.270Z,100511.70
2022-09-23T17:11:52.711Z,100515.05
2022-09-23T17:14:20.644Z,100514.84
2022-09-23T17:16:47.393Z,100516.21
2022-09-23T17:19:14.446Z,100516.16
2022-09-23T17:21:42.277Z,100517.55
2022-09-23T17:24:09.842Z,100519.23
2022-09-23T17:26:37.924Z,100520.73
2022-09-23T17:29:11.231Z,100523.86
2022-09-23T17:31:38.923Z,100523.42
2022-09-23T17:34:06.063Z,100523.71
2022-09-23T17:36:34.044Z,100529.28
2022-09-23T17:39:01.823Z,100524.64
2022-09-23T17:41:30.115Z,100522.11
2022-09-23T17:43:58.194Z,100521.17
2022-09-23T17:46:25.256Z,100522.16
2022-09-23T17:48:55.181Z,100524.04
2022-09-23T17:51:22.951Z,100525.39
2022-09-23T17:53:50.416Z,100524.75
2022-09-23T17:56:20.562Z,100520.30
2022-09-23T17:58:48.326Z,100524.50
2022-09-23T18:01:17.582Z,100526.39
2022-09-23T18:03:45.505Z,100525.92
2022-09-23T18:06:15.335Z,100521.95
2022-09-23T18:08:43.626Z,100519.20
2022-09-23T18:11:19.390Z,100521.88
2022-09-23T18:13:57.303Z,100519.23
2022-09-23T18:16:29.411Z,100516.75
2022-09-23T18:18:58.277Z,100513.23
2022-09-23T18:21:28.202Z,100511.80
2022-09-23T18:24:06.545Z,100514.13
2022-09-23T18:26:43.319Z,100512.23
2022-09-23T18:29:10.517Z,100512.25
2022-09-23T18:31:38.161Z,100514.37
2022-09-23T18:34:07.600Z,100517.33
2022-09-23T18:36:35.383Z,100516.44
2022-09-23T18:39:02.797Z,100518.02
2022-09-23T18:41:30.680Z,100513.74
2022-09-23T18:43:57.932Z,100516.48
2022-09-23T18:46:26.530Z,100516.11
2022-09-23T18:49:12.829Z,100520.34
2022-09-23T18:51:55.148Z,100524.09
2022-09-23T18:54:23.846Z,100528.17
2022-09-23T18:56:52.235Z,100528.90
2022-09-23T18:59:24.082Z,100528.96
2022-09-23T19:01:54.979Z,100524.77
2022-09-23T19:04:23.234Z,100522.70
2022-09-23T19:06:53.162Z,100525.39
2022-09-23T19:09:20.804Z,100523.98
2022-09-23T19:11:52.236Z,100524.23
2022-09-23T19:14:20.182Z,100524.30
2022-09-23T19:16:49.100Z,100528.94
2022-09-23T19:19:16.234Z,100529.33
2022-09-23T19:21:44.319Z,100527.09
2022-09-23T19:24:13.905Z,100528.73
2022-09-23T19:26:41.525Z,100528.09
2022-09-23T19:29:13.719Z,100529.89
2022-09-23T19:31:41.666Z,100531.70
2022-09-23T19:34:17.259Z,100531.58
2022-09-23T19:36:45.227Z,100532.60
2022-09-23T19:39:17.308Z,100533.04
2022-09-23T19:41:45.901Z,100535.77
2022-09-23T19:44:14.096Z,100536.02
2022-09-23T19:46:44.020Z,100539.58
2022-09-23T19:49:11.077Z,100539.63
2022-09-23T19:51:39.668Z,100544.63
2022-09-23T19:54:07.612Z,100543.13
2022-09-23T19:56:35.933Z,100549.91
2022-09-23T19:59:04.226Z,100545.05
2022-09-23T20:01:31.489Z,100543.35
2022-09-23T20:03:59.059Z,100543.06
2022-09-23T20:06:34.689Z,100543.98
2022-09-23T20:09:02.086Z,100544.38
2022-09-23T20:11:29.244Z,100552.85
2022-09-23T20:14:01.648Z,100551.14
2022-09-23T20:16:32.722Z,100550.13
2022-09-23T20:19:01.471Z,100549.48
2022-09-23T20:21:29.067Z,100548.59
2022-09-23T20:23:57.529Z,100553.20
2022-09-23T20:26:50.815Z,100554.09
2022-09-23T20:29:19.097Z,100556.58
2022-09-23T20:31:46.122Z,100563.44
2022-09-23T20:34:13.937Z,100559.26
2022-09-23T20:36:41.915Z,100555.23
2022-09-23T20:39:09.707Z,100552.43
2022-09-23T20:41:38.694Z,100552.95
2022-09-23T20:44:07.455Z,100553.19
2022-09-23T20:46:35.405Z,100554.45
2022-09-23T20:49:03.507Z,100553.58
2022-09-23T20:51:33.087Z,100554.83
2022-09-23T20:54:01.721Z,100551.31
2022-09-23T20:56:29.431Z,100552.56
2022-09-23T20:59:00.475Z,100552.76
2022-09-23T21:01:27.637Z,100554.20
2022-09-23T21:03:55.516Z,100553.21
2022-09-23T21:06:24.618Z,100552.38
2022-09-23T21:08:55.556Z,100550.14
2022-09-23T21:11:22.822Z,100546.63
2022-09-23T21:13:50.805Z,100540.48
2022-09-23T21:16:21.523Z,100541.41
2022-09-23T21:18:49.926Z,100536.88
2022-09-23T21:21:19.137Z,100536.60
2022-09-23T21:23:47.436Z,100539.49
2022-09-23T21:26:19.729Z,100541.48
2022-09-23T21:28:51.050Z,100542.08
2022-09-23T21:31:23.106Z,100541.12
2022-09-23T21:33:54.782Z,100538.73
2022-09-23T21:36:24.092Z,100544.23
2022-09-23T21:38:51.439Z,100539.00
2022-09-23T21:41:18.600Z,100540.81
2022-09-23T21:43:45.964Z,100539.27
2022-09-23T21:46:14.322Z,100540.20
2022-09-23T21:48:42.006Z,100538.47
2022-09-23T21:51:14.203Z,100538.30
2022-09-23T21:53:41.649Z,100532.67
2022-09-23T21:56:14.792Z,100534.60
2022-09-23T21:58:45.584Z,100531.61
2022-09-23T22:01:17.945Z,100534.60
2022-09-23T22:03:54.646Z,100532.65
2022-09-23T22:06:23.119Z,100535.28
2022-09-23T22:08:53.256Z,100541.73
2022-09-23T22:11:40.891Z,100544.16
2022-09-23T22:14:10.368Z,100544.77
2022-09-23T22:16:38.526Z,100542.98
2022-09-23T22:19:08.714Z,100541.39
2022-09-23T22:21:38.154Z,100539.27
2022-09-23T22:24:07.745Z,100537.02
2022-09-23T22:26:40.626Z,100535.98
2022-09-23T22:29:27.145Z,100534.33
2022-09-23T22:32:13.445Z,100534.79
2022-09-23T22:34:50.184Z,100539.59
2022-09-23T22:37:32.233Z,100542.59
2022-09-23T22:39:59.790Z,100543.65
2022-09-23T22:42:27.265Z,100542.94
2022-09-23T22:44:57.225Z,100538.92
2022-09-23T22:47:26.695Z,100534.90
2022-09-23T22:49:54.873Z,100533.20
2022-09-23T22:52:24.196Z,100535.54
2022-09-23T22:54:51.901Z,100528.45
2022-09-23T22:57:19.102Z,100527.97
2022-09-23T22:59:47.594Z,100529.58
2022-09-23T23:02:18.364Z,100521.50
2022-09-23T23:04:46.588Z,100524.83
2022-09-23T23:07:20.486Z,100521.31
2022-09-23T23:09:51.375Z,100513.39
2022-09-23T23:12:19.660Z,100514.08
2022-09-23T23:14:47.741Z,100517.40
2022-09-23T23:17:14.485Z,100516.16
2022-09-23T23:19:41.443Z,100510.71
2022-09-23T23:22:09.114Z,100510.71
2022-09-23T23:24:36.474Z,100505.64
2022-09-23T23:27:03.441Z,100505.26
2022-09-23T23:29:30.689Z,100502.23
2022-09-23T23:31:57.752Z,100496.94
2022-09-23T23:34:25.420Z,100495.12
2022-09-23T23:36:54.210Z,100494.41
2022-09-23T23:39:25.770Z,100497.75
2022-09-23T23:41:54.257Z,100496.86
2022-09-23T23:44:23.366Z,100496.15
2022-09-23T23:46:51.277Z,100493.33
2022-09-23T23:49:18.293Z,100492.95
2022-09-23T23:51:45.454Z,100489.41
2022-09-23T23:54:13.839Z,100487.80
2022-09-23T23:56:40.788Z,100485.85
2022-09-23T23:59:08.202Z,100485.30
